Flight Track Log - Related Links

Times and Time Zones

All times are in EDT time to prevent confusion due to time zone crossing. See the UCA3598 flight status page for this flight to view local times or setup timezone preferences in your user account.

Time Position Orientation Groundspeed Altitude Reporting Facility
EDT Latitude Longitude Course Direction KTS MPH feet Rate Location/Type
Mon 10:17:31 PM 38.9833 -77.4500 339° North 141 162 2,000  Level Potomac TRACON
Mon 10:18:31 PM 39.0167 -77.4667 339° North 174 200 3,200 1,211 Climbing Potomac TRACON
Mon 10:19:25 PM 39.0667 -77.4833 345° North 181 208 4,300 1,158 Climbing Potomac TRACON
Mon 10:20:25 PM 39.1167 -77.5000 346° North 195 224 5,400 1,207 Climbing Potomac TRACON
Mon 10:22:29 PM 39.2194 -77.4936 North 199 229 8,000 1,232 Climbing Washington Center
Mon 10:23:30 PM 39.2758 -77.4872 North 199 229 9,200 1,230 Climbing Washington Center
Mon 10:24:31 PM 39.3300 -77.4833 North 199 229 10,500 1,361 Climbing Washington Center
Mon 10:25:29 PM 39.3864 -77.4767 North 199 229 11,900 1,311 Climbing Washington Center
Mon 10:26:30 PM 39.4428 -77.4728 North 199 229 13,100 1,240 Climbing Washington Center
Mon 10:27:30 PM 39.4969 -77.4686 North 199 229 14,400 1,123 Climbing Washington Center
Mon 10:29:37 PM 39.6153 -77.4575 North 197 227 16,600 1,097 Climbing New York Center
Mon 10:30:36 PM 39.6717 -77.4550 North 197 227 17,800 950 Climbing New York Center
Mon 10:31:37 PM 39.7242 -77.4517 North 197 227 18,500 600 Climbing New York Center
Mon 10:32:36 PM 39.7719 -77.4158 30° Northeast 192 221 19,000 248 Climbing New York Center
Mon 10:33:38 PM 39.8283 -77.3806 26° Northeast 212 244 19,000  Level New York Center
Mon 10:34:38 PM 39.8947 -77.3461 22° Northeast 236 272 19,000  Level New York Center
Mon 10:35:35 PM 39.9592 -77.3142 21° North 243 280 19,000  Level New York Center
Mon 10:36:38 PM 40.0256 -77.2800 22° Northeast 248 285 19,000  Level New York Center
Mon 10:37:37 PM 40.0900 -77.2478 21° North 248 285 19,000  Level New York Center
Mon 10:38:36 PM 40.1564 -77.2133 22° Northeast 248 285 19,000 -303 Level New York Center
Mon 10:39:36 PM 40.2208 -77.1786 22° Northeast 248 285 18,400 -800 Descending New York Center
Mon 10:40:36 PM 40.2875 -77.1439 22° Northeast 248 285 17,400 -750 Descending New York Center
Mon 10:41:36 PM 40.3583 -77.1067 22° Northeast 253 291 16,900 -250 Descending New York Center
Mon 10:42:36 PM 40.4267 -77.0750 19° North 253 291 16,900  Level New York Center
Mon 10:43:37 PM 40.4911 -77.0369 24° Northeast 253 291 16,900 -198 Level New York Center
Mon 10:44:37 PM 40.5617 -77.0025 20° North 253 291 16,500 -650 Descending New York Center
Mon 10:45:37 PM 40.6283 -76.9647 23° Northeast 258 297 15,600 -744 Descending New York Center
Mon 10:46:38 PM 40.6992 -76.9275 22° Northeast 258 297 15,000 -298 Descending New York Center
Mon 10:47:38 PM 40.7678 -76.8925 21° North 258 297 15,000  Level New York Center
Mon 10:48:36 PM 40.8319 -76.8569 23° Northeast 258 297 15,000 51 Level New York Center
Mon 10:49:36 PM 40.8983 -76.8244 20° North 253 291 15,100 -148 Climbing New York Center
Mon 10:50:38 PM 40.9603 -76.7917 22° Northeast 253 291 14,700 -750 Descending New York Center
Mon 10:51:36 PM 41.0289 -76.7536 23° Northeast 258 297 13,600 -864 Descending New York Center
Mon 10:52:36 PM 41.0997 -76.7158 22° Northeast 263 303 13,000 -300 Descending New York Center
Mon 10:53:36 PM 41.1658 -76.6831 20° North 258 297 13,000  Level New York Center
Mon 10:54:37 PM 41.2367 -76.6422 23° Northeast 253 291 13,000  Level New York Center
Mon 10:55:37 PM 41.3011 -76.6036 24° Northeast 253 291 13,000  Level New York Center
Mon 10:56:37 PM 41.3608 -76.5731 21° North 253 291 13,000  Level New York Center
Mon 10:57:38 PM 41.4272 -76.5372 22° Northeast 253 291 13,000 -252 Level New York Center
Mon 10:58:36 PM 41.4978 -76.4989 22° Northeast 253 291 12,500 -814 Descending New York Center
Mon 10:59:36 PM 41.5683 -76.4633 21° North 253 291 11,400 -1,131 Descending New York Center
Mon 11:00:38 PM 41.6367 -76.4247 23° Northeast 259 298 10,200 -1,150 Descending New York Center
Mon 11:01:36 PM 41.6947 -76.3853 27° Northeast 259 298 9,100 -1,513 Descending New York Center
Mon 11:02:37 PM 41.7619 -76.3325 30° Northeast 247 284 7,200 -1,820 Descending New York Center
Mon 11:03:38 PM 41.8200 -76.2900 29° Northeast 242 278 5,400 -1,488 Descending New York Center
Mon 11:04:38 PM 41.8764 -76.2444 31° Northeast 236 272 4,200 -712 Descending New York Center
Mon 11:05:36 PM 41.9239 -76.2039 32° Northeast 236 272 4,000 -101 Descending New York Center
Mon 11:06:37 PM 41.9800 -76.1611 30° Northeast 231 266 4,000  Level New York Center
Mon 11:07:37 PM 41.9886 -76.0667 83° East 205 236 4,000  Level New York Center
Mon 11:08:37 PM 41.9861 -75.9772 92° East 227 261 4,000  Level New York Center
Mon 11:09:36 PM 41.9900 -75.8883 87° East 241 277 4,000 -50 Level New York Center
Mon 11:10:36 PM 42.0214 -75.8350 52° Northeast 187 215 3,900 -50 Descending New York Center
Mon 11:11:37 PM 42.0783 -75.8700 335° Northwest 175 201 3,900 -248 Level New York Center
Mon 11:12:37 PM 42.1283 -75.9131 327° Northwest 191 220 3,400 -700 Descending New York Center
Mon 11:13:37 PM 42.1644 -75.9467 325° Northwest 181 208 2,500 -900 Descending New York Center

Login

Don't have an account? Register now (free) for customized features, flight alerts, and more!